NKS252 KATL-KFLL
Flight info
| Callsign | NKS252 |
|---|---|
| Flight time | 1h 27m |
| Altitude | 37000 |
| Route | SMLTZ3 WALET ZPLEN TEEKY3 |
| Aircraft | A321/M-SDE3FGHIRWY/LB1 |
Departure
| Time | 2026-05-03 21:14 |
|---|---|
| Airport | Hartsfield Jackson Atlanta International Airport (KATL) |
Arrival
| Time | 2026-05-03 22:41 |
|---|---|
| Airport | Fort Lauderdale Hollywood International Airport (KFLL) |
| Time | Latitude | Longitude | Altitude | Speed | Heading |
|---|---|---|---|---|---|
| 2026-05-03 20:15 | 33.63794 | -84.43645 | 1036 ft | 0 kts | 90° |
| 2026-05-03 20:50 | 33.63794 | -84.43661 | 1036 ft | 4 kts | 90° |
| 2026-05-03 20:50 | 33.63796 | -84.43692 | 1036 ft | 4 kts | 109° |
| 2026-05-03 20:50 | 33.63810 | -84.43717 | 1036 ft | 4 kts | 152° |
| 2026-05-03 20:51 | 33.63825 | -84.43723 | 1036 ft | 0 kts | 180° |
| 2026-05-03 20:55 | 33.63820 | -84.43723 | 1036 ft | 3 kts | 180° |
| 2026-05-03 20:55 | 33.63796 | -84.43723 | 1036 ft | 4 kts | 180° |
| 2026-05-03 20:56 | 33.63740 | -84.43723 | 1036 ft | 6 kts | 180° |
| 2026-05-03 20:56 | 33.63733 | -84.43723 | 1036 ft | 0 kts | 180° |
| 2026-05-03 20:58 | 33.63731 | -84.43723 | 1036 ft | 1 kts | 180° |
| 2026-05-03 20:58 | 33.63707 | -84.43723 | 1036 ft | 6 kts | 179° |
| 2026-05-03 20:58 | 33.63667 | -84.43684 | 1036 ft | 11 kts | 111° |
| 2026-05-03 20:59 | 33.63665 | -84.43578 | 1035 ft | 13 kts | 90° |
| 2026-05-03 20:59 | 33.63665 | -84.43482 | 1035 ft | 11 kts | 90° |
| 2026-05-03 20:59 | 33.63664 | -84.43400 | 1052 ft | 10 kts | 91° |
| 2026-05-03 20:59 | 33.63664 | -84.43300 | 1035 ft | 14 kts | 89° |
| 2026-05-03 21:00 | 33.63664 | -84.43158 | 1035 ft | 18 kts | 90° |
| 2026-05-03 21:00 | 33.63665 | -84.43062 | 1035 ft | 16 kts | 89° |
| 2026-05-03 21:00 | 33.63664 | -84.42896 | 1035 ft | 13 kts | 90° |
| 2026-05-03 21:00 | 33.63664 | -84.42791 | 1036 ft | 14 kts | 92° |
| 2026-05-03 21:01 | 33.63656 | -84.42648 | 1036 ft | 20 kts | 86° |
| 2026-05-03 21:01 | 33.63657 | -84.42493 | 1036 ft | 17 kts | 92° |
| 2026-05-03 21:01 | 33.63656 | -84.42363 | 1036 ft | 15 kts | 90° |
| 2026-05-03 21:01 | 33.63656 | -84.42251 | 1036 ft | 12 kts | 90° |
| 2026-05-03 21:02 | 33.63656 | -84.42141 | 1036 ft | 17 kts | 90° |
| 2026-05-03 21:02 | 33.63656 | -84.41970 | 1036 ft | 21 kts | 90° |
| 2026-05-03 21:02 | 33.63656 | -84.41809 | 1035 ft | 18 kts | 90° |
| 2026-05-03 21:02 | 33.63656 | -84.41670 | 1035 ft | 15 kts | 90° |
| 2026-05-03 21:03 | 33.63656 | -84.41550 | 1035 ft | 13 kts | 90° |
| 2026-05-03 21:03 | 33.63656 | -84.41449 | 1035 ft | 11 kts | 90° |
| 2026-05-03 21:03 | 33.63656 | -84.41350 | 1035 ft | 15 kts | 90° |
| 2026-05-03 21:03 | 33.63656 | -84.41197 | 1035 ft | 20 kts | 90° |
| 2026-05-03 21:04 | 33.63657 | -84.41043 | 1035 ft | 17 kts | 90° |
| 2026-05-03 21:04 | 33.63636 | -84.40922 | 1035 ft | 13 kts | 142° |
| 2026-05-03 21:04 | 33.63608 | -84.40913 | 1035 ft | 0 kts | 179° |
| 2026-05-03 21:07 | 33.63602 | -84.40913 | 1035 ft | 3 kts | 179° |
| 2026-05-03 21:07 | 33.63570 | -84.40913 | 1036 ft | 4 kts | 180° |
| 2026-05-03 21:08 | 33.63568 | -84.40913 | 1036 ft | 0 kts | 180° |
| 2026-05-03 21:10 | 33.63567 | -84.40913 | 1036 ft | 1 kts | 180° |
| 2026-05-03 21:10 | 33.63512 | -84.40919 | 1036 ft | 11 kts | 198° |
| 2026-05-03 21:10 | 33.63473 | -84.40978 | 1036 ft | 8 kts | 266° |
| 2026-05-03 21:10 | 33.63473 | -84.40987 | 1036 ft | 0 kts | 268° |
| 2026-05-03 21:12 | 33.63473 | -84.40988 | 1036 ft | 1 kts | 268° |
| 2026-05-03 21:13 | 33.63472 | -84.41144 | 1035 ft | 50 kts | 270° |
| 2026-05-03 21:13 | 33.63473 | -84.41804 | 1036 ft | 105 kts | 269° |
| 2026-05-03 21:13 | 33.63470 | -84.42857 | 1037 ft | 145 kts | 270° |
| 2026-05-03 21:13 | 33.63473 | -84.44134 | 1345 ft | 155 kts | 270° |
| 2026-05-03 21:14 | 33.63482 | -84.45453 | 1871 ft | 160 kts | 272° |
| 2026-05-03 21:14 | 33.63479 | -84.46823 | 2428 ft | 165 kts | 271° |
| 2026-05-03 21:14 | 33.63473 | -84.48229 | 2899 ft | 173 kts | 271° |
| 2026-05-03 21:14 | 33.63467 | -84.49733 | 3187 ft | 190 kts | 271° |
| 2026-05-03 21:15 | 33.63461 | -84.51378 | 3454 ft | 205 kts | 272° |
| 2026-05-03 21:15 | 33.63459 | -84.53148 | 3656 ft | 222 kts | 271° |
| 2026-05-03 21:15 | 33.63460 | -84.55087 | 3940 ft | 241 kts | 270° |
| 2026-05-03 21:15 | 33.63460 | -84.57166 | 4365 ft | 256 kts | 271° |
| 2026-05-03 21:16 | 33.63461 | -84.59316 | 5102 ft | 259 kts | 270° |
| 2026-05-03 21:16 | 33.63460 | -84.61495 | 5829 ft | 263 kts | 271° |
| 2026-05-03 21:16 | 33.63268 | -84.63684 | 6567 ft | 268 kts | 256° |
| 2026-05-03 21:16 | 33.62479 | -84.65722 | 7243 ft | 274 kts | 236° |
| 2026-05-03 21:17 | 33.61128 | -84.67359 | 7906 ft | 280 kts | 216° |
| 2026-05-03 21:17 | 33.60013 | -84.68160 | 8356 ft | 284 kts | 211° |
| 2026-05-03 21:17 | 33.58186 | -84.69069 | 9049 ft | 289 kts | 197° |
| 2026-05-03 21:17 | 33.56173 | -84.69384 | 9743 ft | 295 kts | 181° |
| 2026-05-03 21:18 | 33.54115 | -84.69103 | 10357 ft | 300 kts | 173° |
| 2026-05-03 21:18 | 33.52040 | -84.68707 | 10963 ft | 303 kts | 173° |
| 2026-05-03 21:18 | 33.49944 | -84.68307 | 11592 ft | 306 kts | 173° |
| 2026-05-03 21:18 | 33.47836 | -84.67905 | 12218 ft | 308 kts | 173° |
| 2026-05-03 21:19 | 33.45720 | -84.67504 | 12823 ft | 311 kts | 174° |
| 2026-05-03 21:19 | 33.43588 | -84.66991 | 13427 ft | 315 kts | 165° |
| 2026-05-03 21:19 | 33.41567 | -84.65908 | 14004 ft | 322 kts | 151° |
| 2026-05-03 21:19 | 33.39767 | -84.64211 | 14216 ft | 339 kts | 136° |
| 2026-05-03 21:20 | 33.38083 | -84.62188 | 14386 ft | 355 kts | 137° |
| 2026-05-03 21:20 | 33.36297 | -84.60059 | 14536 ft | 370 kts | 137° |
| 2026-05-03 21:20 | 33.34481 | -84.57906 | 14860 ft | 378 kts | 137° |
| 2026-05-03 21:20 | 33.32604 | -84.55684 | 15354 ft | 381 kts | 137° |
| 2026-05-03 21:21 | 33.30711 | -84.53449 | 15870 ft | 384 kts | 137° |
| 2026-05-03 21:21 | 33.28800 | -84.51199 | 16390 ft | 387 kts | 137° |
| 2026-05-03 21:21 | 33.26875 | -84.48934 | 16883 ft | 390 kts | 137° |
| 2026-05-03 21:21 | 33.24934 | -84.46649 | 17396 ft | 393 kts | 137° |
| 2026-05-03 21:22 | 33.22982 | -84.44354 | 17905 ft | 395 kts | 138° |
| 2026-05-03 21:22 | 33.21012 | -84.42045 | 18398 ft | 398 kts | 138° |
| 2026-05-03 21:22 | 33.19027 | -84.39719 | 18847 ft | 401 kts | 138° |
| 2026-05-03 21:22 | 33.17028 | -84.37375 | 19298 ft | 404 kts | 138° |
| 2026-05-03 21:23 | 33.15012 | -84.35013 | 19720 ft | 406 kts | 138° |
| 2026-05-03 21:23 | 33.12989 | -84.32639 | 20158 ft | 409 kts | 138° |
| 2026-05-03 21:23 | 33.10957 | -84.30255 | 20595 ft | 411 kts | 138° |
| 2026-05-03 21:23 | 33.08913 | -84.27857 | 21028 ft | 414 kts | 138° |
| 2026-05-03 21:24 | 33.06853 | -84.25442 | 21459 ft | 416 kts | 139° |
| 2026-05-03 21:24 | 33.04779 | -84.23015 | 21881 ft | 419 kts | 139° |
| 2026-05-03 21:24 | 33.02707 | -84.20594 | 22296 ft | 421 kts | 139° |
| 2026-05-03 21:24 | 33.00491 | -84.18370 | 22693 ft | 419 kts | 149° |
| 2026-05-03 21:25 | 32.97989 | -84.16617 | 23084 ft | 416 kts | 159° |
| 2026-05-03 21:25 | 32.95300 | -84.15374 | 23465 ft | 415 kts | 166° |
| 2026-05-03 21:25 | 32.92551 | -84.14257 | 23819 ft | 418 kts | 165° |
| 2026-05-03 21:25 | 32.89801 | -84.13128 | 24106 ft | 420 kts | 166° |
| 2026-05-03 21:26 | 32.87034 | -84.11985 | 24414 ft | 422 kts | 166° |
| 2026-05-03 21:26 | 32.84256 | -84.10836 | 24721 ft | 423 kts | 166° |
| 2026-05-03 21:26 | 32.81464 | -84.09685 | 25021 ft | 425 kts | 166° |
| 2026-05-03 21:26 | 32.78664 | -84.08534 | 25309 ft | 427 kts | 166° |
| 2026-05-03 21:27 | 32.75852 | -84.07379 | 25610 ft | 428 kts | 167° |
| 2026-05-03 21:27 | 32.73266 | -84.06321 | 25869 ft | 429 kts | 167° |
| 2026-05-03 21:27 | 32.70436 | -84.05165 | 26142 ft | 431 kts | 167° |
| 2026-05-03 21:27 | 32.67588 | -84.04000 | 26425 ft | 433 kts | 167° |
| 2026-05-03 21:28 | 32.64737 | -84.02830 | 26703 ft | 434 kts | 167° |
| 2026-05-03 21:28 | 32.61878 | -84.01656 | 26975 ft | 436 kts | 168° |
| 2026-05-03 21:28 | 32.59000 | -84.00477 | 27259 ft | 438 kts | 168° |
| 2026-05-03 21:28 | 32.56118 | -83.99299 | 27537 ft | 439 kts | 168° |
| 2026-05-03 21:29 | 32.53221 | -83.98116 | 27810 ft | 441 kts | 168° |
| 2026-05-03 21:29 | 32.50355 | -83.96945 | 28075 ft | 442 kts | 168° |
| 2026-05-03 21:29 | 32.47439 | -83.95756 | 28349 ft | 444 kts | 168° |
| 2026-05-03 21:29 | 32.44474 | -83.94547 | 28616 ft | 445 kts | 168° |
| 2026-05-03 21:30 | 32.41584 | -83.93369 | 28856 ft | 447 kts | 169° |
| 2026-05-03 21:30 | 32.38606 | -83.92158 | 29109 ft | 448 kts | 169° |
| 2026-05-03 21:30 | 32.35990 | -83.91094 | 29319 ft | 449 kts | 169° |
| 2026-05-03 21:30 | 32.33026 | -83.89922 | 29550 ft | 450 kts | 170° |
| 2026-05-03 21:31 | 32.30044 | -83.88787 | 29801 ft | 450 kts | 171° |
| 2026-05-03 21:31 | 32.27053 | -83.87681 | 30034 ft | 452 kts | 171° |
| 2026-05-03 21:31 | 32.24042 | -83.86574 | 30265 ft | 453 kts | 171° |
| 2026-05-03 21:31 | 32.21038 | -83.85463 | 30540 ft | 452 kts | 171° |
| 2026-05-03 21:32 | 32.18044 | -83.84346 | 30871 ft | 450 kts | 171° |
| 2026-05-03 21:32 | 32.15070 | -83.83225 | 31208 ft | 448 kts | 171° |
| 2026-05-03 21:32 | 32.12105 | -83.82103 | 31537 ft | 446 kts | 171° |
| 2026-05-03 21:32 | 32.09155 | -83.80988 | 31869 ft | 444 kts | 172° |
| 2026-05-03 21:33 | 32.06215 | -83.79881 | 32179 ft | 443 kts | 172° |
| 2026-05-03 21:33 | 32.03279 | -83.78779 | 32494 ft | 441 kts | 172° |
| 2026-05-03 21:33 | 32.00362 | -83.77689 | 32800 ft | 439 kts | 172° |
| 2026-05-03 21:33 | 31.97456 | -83.76604 | 33105 ft | 438 kts | 172° |
| 2026-05-03 21:34 | 31.94559 | -83.75524 | 33407 ft | 436 kts | 173° |
| 2026-05-03 21:34 | 31.91669 | -83.74445 | 33702 ft | 435 kts | 173° |
| 2026-05-03 21:34 | 31.88798 | -83.73371 | 34000 ft | 433 kts | 173° |
| 2026-05-03 21:34 | 31.85938 | -83.72300 | 34266 ft | 432 kts | 173° |
| 2026-05-03 21:35 | 31.83065 | -83.71230 | 34490 ft | 431 kts | 173° |
| 2026-05-03 21:35 | 31.80210 | -83.70169 | 34704 ft | 430 kts | 173° |
| 2026-05-03 21:35 | 31.77354 | -83.69105 | 34899 ft | 430 kts | 173° |
| 2026-05-03 21:35 | 31.74499 | -83.68039 | 35082 ft | 430 kts | 173° |
| 2026-05-03 21:36 | 31.71656 | -83.66979 | 35277 ft | 429 kts | 173° |
| 2026-05-03 21:36 | 31.68812 | -83.65919 | 35449 ft | 429 kts | 174° |
| 2026-05-03 21:36 | 31.65962 | -83.64857 | 35626 ft | 429 kts | 174° |
| 2026-05-03 21:36 | 31.62397 | -83.63532 | 35831 ft | 428 kts | 174° |
| 2026-05-03 21:37 | 31.57392 | -83.61677 | 36125 ft | 427 kts | 174° |
| 2026-05-03 21:37 | 31.54558 | -83.60628 | 36289 ft | 427 kts | 174° |
| 2026-05-03 21:37 | 31.51723 | -83.59580 | 36442 ft | 427 kts | 174° |
| 2026-05-03 21:37 | 31.48894 | -83.58533 | 36589 ft | 426 kts | 174° |
| 2026-05-03 21:38 | 31.46070 | -83.57486 | 36737 ft | 426 kts | 174° |
| 2026-05-03 21:38 | 31.43246 | -83.56437 | 36879 ft | 425 kts | 175° |
| 2026-05-03 21:38 | 31.40428 | -83.55393 | 37048 ft | 424 kts | 175° |
| 2026-05-03 21:38 | 31.37644 | -83.54365 | 37121 ft | 425 kts | 175° |
| 2026-05-03 21:39 | 31.31974 | -83.52277 | 37144 ft | 430 kts | 175° |
| 2026-05-03 21:39 | 31.26218 | -83.50160 | 37143 ft | 436 kts | 175° |
| 2026-05-03 21:40 | 31.20874 | -83.48190 | 37141 ft | 440 kts | 174° |
| 2026-05-03 21:40 | 31.15027 | -83.46028 | 37137 ft | 440 kts | 175° |
| 2026-05-03 21:41 | 31.09181 | -83.43879 | 37128 ft | 440 kts | 175° |
| 2026-05-03 21:41 | 31.03339 | -83.41742 | 37122 ft | 440 kts | 175° |
| 2026-05-03 21:42 | 30.97498 | -83.39601 | 37118 ft | 440 kts | 175° |
| 2026-05-03 21:42 | 30.91653 | -83.37458 | 37133 ft | 440 kts | 175° |
| 2026-05-03 21:43 | 30.85837 | -83.35329 | 37126 ft | 439 kts | 175° |
| 2026-05-03 21:43 | 30.80013 | -83.33212 | 37124 ft | 439 kts | 175° |
| 2026-05-03 21:44 | 30.74185 | -83.31094 | 37124 ft | 439 kts | 175° |
| 2026-05-03 21:44 | 30.68415 | -83.28551 | 37124 ft | 452 kts | 168° |
| 2026-05-03 21:45 | 30.62691 | -83.25457 | 37131 ft | 455 kts | 168° |
| 2026-05-03 21:45 | 30.56934 | -83.22347 | 37134 ft | 458 kts | 168° |
| 2026-05-03 21:46 | 30.51192 | -83.19254 | 37138 ft | 458 kts | 168° |
| 2026-05-03 21:46 | 30.45413 | -83.16148 | 37143 ft | 457 kts | 168° |
| 2026-05-03 21:47 | 30.39644 | -83.13050 | 37135 ft | 457 kts | 168° |
| 2026-05-03 21:47 | 30.33871 | -83.09958 | 37135 ft | 457 kts | 168° |
| 2026-05-03 21:48 | 30.28091 | -83.06873 | 37137 ft | 457 kts | 168° |
| 2026-05-03 21:48 | 30.22562 | -83.03926 | 37137 ft | 457 kts | 168° |
| 2026-05-03 21:49 | 30.16793 | -83.00847 | 37129 ft | 457 kts | 168° |
| 2026-05-03 21:49 | 30.11018 | -82.97759 | 37127 ft | 457 kts | 168° |
| 2026-05-03 21:50 | 30.05246 | -82.94686 | 37125 ft | 457 kts | 168° |
| 2026-05-03 21:50 | 29.99460 | -82.91618 | 37119 ft | 457 kts | 168° |
| 2026-05-03 21:51 | 29.93680 | -82.88559 | 37117 ft | 457 kts | 168° |
| 2026-05-03 21:51 | 29.87897 | -82.85491 | 37120 ft | 457 kts | 168° |
| 2026-05-03 21:52 | 29.82115 | -82.82435 | 37107 ft | 457 kts | 169° |
| 2026-05-03 21:52 | 29.76323 | -82.79372 | 37108 ft | 457 kts | 168° |
| 2026-05-03 21:53 | 29.70576 | -82.76331 | 37109 ft | 457 kts | 168° |
| 2026-05-03 21:53 | 29.64788 | -82.73277 | 37103 ft | 457 kts | 169° |
| 2026-05-03 21:54 | 29.59004 | -82.70233 | 37099 ft | 457 kts | 169° |
| 2026-05-03 21:54 | 29.53214 | -82.67188 | 37103 ft | 457 kts | 169° |
| 2026-05-03 21:55 | 29.47429 | -82.64147 | 37098 ft | 457 kts | 169° |
| 2026-05-03 21:55 | 29.41637 | -82.61117 | 37098 ft | 457 kts | 169° |
| 2026-05-03 21:56 | 29.35851 | -82.58087 | 37093 ft | 457 kts | 169° |
| 2026-05-03 21:56 | 29.30064 | -82.55052 | 37092 ft | 457 kts | 169° |
| 2026-05-03 21:57 | 29.27147 | -82.53705 | 37092 ft | 444 kts | 176° |
| 2026-05-03 21:57 | 29.24203 | -82.52927 | 37093 ft | 427 kts | 186° |
| 2026-05-03 21:57 | 29.21294 | -82.52701 | 37092 ft | 413 kts | 193° |
| 2026-05-03 21:57 | 29.18419 | -82.52721 | 37089 ft | 413 kts | 192° |
| 2026-05-03 21:58 | 29.12655 | -82.52731 | 37092 ft | 414 kts | 192° |
| 2026-05-03 21:58 | 29.06883 | -82.52723 | 37079 ft | 414 kts | 192° |
| 2026-05-03 21:59 | 29.01115 | -82.52718 | 37082 ft | 414 kts | 192° |
| 2026-05-03 21:59 | 28.95350 | -82.52719 | 37077 ft | 414 kts | 192° |
| 2026-05-03 22:00 | 28.89619 | -82.52719 | 37082 ft | 414 kts | 192° |
| 2026-05-03 22:00 | 28.83854 | -82.52715 | 37079 ft | 414 kts | 192° |
| 2026-05-03 22:01 | 28.78080 | -82.52711 | 37079 ft | 415 kts | 192° |
| 2026-05-03 22:01 | 28.72295 | -82.52706 | 37082 ft | 416 kts | 192° |
| 2026-05-03 22:02 | 28.66493 | -82.52696 | 37083 ft | 416 kts | 192° |
| 2026-05-03 22:02 | 28.61683 | -82.52693 | 37082 ft | 416 kts | 192° |
| 2026-05-03 22:03 | 28.54947 | -82.52693 | 37080 ft | 417 kts | 192° |
| 2026-05-03 22:03 | 28.49143 | -82.52692 | 37078 ft | 417 kts | 192° |
| 2026-05-03 22:04 | 28.44264 | -82.52686 | 37079 ft | 418 kts | 192° |
| 2026-05-03 22:04 | 28.38443 | -82.52682 | 37079 ft | 419 kts | 192° |
| 2026-05-03 22:05 | 28.32643 | -82.52681 | 37080 ft | 419 kts | 192° |
| 2026-05-03 22:05 | 28.26805 | -82.52682 | 37080 ft | 420 kts | 192° |
| 2026-05-03 22:06 | 28.20954 | -82.52674 | 37068 ft | 421 kts | 192° |
| 2026-05-03 22:06 | 28.15086 | -82.52667 | 37066 ft | 421 kts | 192° |
| 2026-05-03 22:07 | 28.09360 | -82.52670 | 37063 ft | 422 kts | 192° |
| 2026-05-03 22:07 | 28.03472 | -82.52672 | 37062 ft | 423 kts | 192° |
| 2026-05-03 22:08 | 27.97508 | -82.51836 | 37058 ft | 451 kts | 175° |
| 2026-05-03 22:08 | 27.91501 | -82.49691 | 37050 ft | 453 kts | 175° |
| 2026-05-03 22:09 | 27.85490 | -82.47546 | 37049 ft | 454 kts | 175° |
| 2026-05-03 22:10 | 27.76506 | -82.44345 | 37054 ft | 438 kts | 175° |
| 2026-05-03 22:10 | 27.70709 | -82.42283 | 37058 ft | 436 kts | 175° |
| 2026-05-03 22:11 | 27.64913 | -82.40252 | 37052 ft | 437 kts | 175° |
| 2026-05-03 22:11 | 27.59103 | -82.38212 | 37065 ft | 438 kts | 175° |
| 2026-05-03 22:12 | 27.53325 | -82.36175 | 37056 ft | 438 kts | 175° |
| 2026-05-03 22:12 | 27.47502 | -82.34122 | 37056 ft | 439 kts | 175° |
| 2026-05-03 22:13 | 27.41677 | -82.32068 | 37057 ft | 439 kts | 175° |
| 2026-05-03 22:13 | 27.35910 | -82.29543 | 37059 ft | 459 kts | 162° |
| 2026-05-03 22:14 | 27.30304 | -82.25970 | 36252 ft | 472 kts | 162° |
| 2026-05-03 22:14 | 27.27459 | -82.24159 | 35789 ft | 468 kts | 162° |
| 2026-05-03 22:14 | 27.24652 | -82.22361 | 35153 ft | 461 kts | 162° |
| 2026-05-03 22:14 | 27.21984 | -82.20647 | 34470 ft | 454 kts | 162° |
| 2026-05-03 22:15 | 27.19264 | -82.18905 | 33728 ft | 448 kts | 162° |
| 2026-05-03 22:15 | 27.16560 | -82.17189 | 33066 ft | 444 kts | 161° |
| 2026-05-03 22:15 | 27.13872 | -82.15495 | 32591 ft | 442 kts | 161° |
| 2026-05-03 22:15 | 27.11135 | -82.13788 | 32066 ft | 461 kts | 160° |
| 2026-05-03 22:16 | 27.08255 | -82.12006 | 31500 ft | 482 kts | 160° |
| 2026-05-03 22:16 | 27.05282 | -82.10155 | 30918 ft | 490 kts | 159° |
| 2026-05-03 22:16 | 27.02333 | -82.08284 | 30351 ft | 485 kts | 158° |
| 2026-05-03 22:16 | 26.99415 | -82.06416 | 29752 ft | 481 kts | 158° |
| 2026-05-03 22:17 | 26.96592 | -82.04401 | 29272 ft | 486 kts | 149° |
| 2026-05-03 22:17 | 26.94059 | -82.01852 | 28746 ft | 492 kts | 140° |
| 2026-05-03 22:17 | 26.91718 | -81.99074 | 28252 ft | 488 kts | 140° |
| 2026-05-03 22:17 | 26.89393 | -81.96321 | 27757 ft | 485 kts | 140° |
| 2026-05-03 22:18 | 26.87085 | -81.93587 | 27270 ft | 481 kts | 140° |
| 2026-05-03 22:18 | 26.84796 | -81.90880 | 26790 ft | 478 kts | 140° |
| 2026-05-03 22:18 | 26.82545 | -81.88227 | 26317 ft | 474 kts | 140° |
| 2026-05-03 22:18 | 26.80282 | -81.85560 | 25843 ft | 470 kts | 140° |
| 2026-05-03 22:19 | 26.78039 | -81.82921 | 25356 ft | 466 kts | 140° |
| 2026-05-03 22:19 | 26.75807 | -81.80299 | 24874 ft | 463 kts | 140° |
| 2026-05-03 22:19 | 26.73567 | -81.77684 | 24393 ft | 458 kts | 141° |
| 2026-05-03 22:19 | 26.71392 | -81.75154 | 23919 ft | 454 kts | 141° |
| 2026-05-03 22:20 | 26.69207 | -81.72615 | 23402 ft | 450 kts | 141° |
| 2026-05-03 22:20 | 26.67046 | -81.70109 | 22893 ft | 447 kts | 141° |
| 2026-05-03 22:20 | 26.64900 | -81.67625 | 22436 ft | 443 kts | 141° |
| 2026-05-03 22:20 | 26.62802 | -81.65109 | 21952 ft | 444 kts | 135° |
| 2026-05-03 22:21 | 26.60896 | -81.62390 | 21491 ft | 442 kts | 134° |
| 2026-05-03 22:21 | 26.59015 | -81.59683 | 21023 ft | 439 kts | 134° |
| 2026-05-03 22:21 | 26.57149 | -81.56996 | 20542 ft | 436 kts | 134° |
| 2026-05-03 22:21 | 26.55373 | -81.54435 | 20119 ft | 435 kts | 134° |
| 2026-05-03 22:22 | 26.53519 | -81.51768 | 19661 ft | 434 kts | 134° |
| 2026-05-03 22:22 | 26.51670 | -81.49114 | 19197 ft | 434 kts | 133° |
| 2026-05-03 22:22 | 26.49813 | -81.46451 | 18745 ft | 433 kts | 133° |
| 2026-05-03 22:22 | 26.47982 | -81.43822 | 18503 ft | 423 kts | 133° |
| 2026-05-03 22:23 | 26.46585 | -81.41810 | 18405 ft | 403 kts | 133° |
| 2026-05-03 22:23 | 26.46278 | -81.41368 | 18394 ft | 399 kts | 133° |
| 2026-05-03 22:23 | 26.44630 | -81.38984 | 18253 ft | 375 kts | 134° |
| 2026-05-03 22:23 | 26.43074 | -81.36745 | 17972 ft | 359 kts | 134° |
| 2026-05-03 22:24 | 26.41553 | -81.34571 | 17410 ft | 352 kts | 134° |
| 2026-05-03 22:24 | 26.40051 | -81.32440 | 16804 ft | 347 kts | 134° |
| 2026-05-03 22:24 | 26.38566 | -81.30335 | 16217 ft | 343 kts | 134° |
| 2026-05-03 22:24 | 26.37110 | -81.28273 | 15660 ft | 340 kts | 134° |
| 2026-05-03 22:25 | 26.35654 | -81.26210 | 15255 ft | 338 kts | 134° |
| 2026-05-03 22:25 | 26.34202 | -81.24149 | 14908 ft | 336 kts | 134° |
| 2026-05-03 22:25 | 26.32765 | -81.22104 | 14560 ft | 336 kts | 134° |
| 2026-05-03 22:25 | 26.31327 | -81.20058 | 14204 ft | 335 kts | 134° |
| 2026-05-03 22:26 | 26.29889 | -81.18014 | 13848 ft | 334 kts | 134° |
| 2026-05-03 22:26 | 26.28457 | -81.15984 | 13465 ft | 333 kts | 134° |
| 2026-05-03 22:26 | 26.26993 | -81.13997 | 13104 ft | 330 kts | 135° |
| 2026-05-03 22:26 | 26.25513 | -81.12051 | 12754 ft | 328 kts | 135° |
| 2026-05-03 22:27 | 26.24023 | -81.10117 | 12398 ft | 327 kts | 135° |
| 2026-05-03 22:27 | 26.22572 | -81.08236 | 12046 ft | 319 kts | 135° |
| 2026-05-03 22:27 | 26.21113 | -81.06337 | 11700 ft | 318 kts | 135° |
| 2026-05-03 22:27 | 26.19688 | -81.04476 | 11451 ft | 310 kts | 135° |
| 2026-05-03 22:28 | 26.18345 | -81.02710 | 11133 ft | 299 kts | 135° |
| 2026-05-03 22:28 | 26.17040 | -81.00989 | 10905 ft | 280 kts | 135° |
| 2026-05-03 22:28 | 26.15847 | -80.99361 | 10641 ft | 266 kts | 130° |
| 2026-05-03 22:28 | 26.14917 | -80.97579 | 10183 ft | 266 kts | 117° |
| 2026-05-03 22:29 | 26.14326 | -80.95620 | 9736 ft | 269 kts | 105° |
| 2026-05-03 22:29 | 26.13989 | -80.93576 | 9381 ft | 268 kts | 102° |
| 2026-05-03 22:29 | 26.13657 | -80.91543 | 9070 ft | 266 kts | 102° |
| 2026-05-03 22:29 | 26.13321 | -80.89520 | 8758 ft | 264 kts | 102° |
| 2026-05-03 22:30 | 26.12987 | -80.87517 | 8410 ft | 262 kts | 102° |
| 2026-05-03 22:30 | 26.12655 | -80.85530 | 8084 ft | 260 kts | 102° |
| 2026-05-03 22:30 | 26.12327 | -80.83557 | 7745 ft | 258 kts | 102° |
| 2026-05-03 22:30 | 26.12002 | -80.81600 | 7410 ft | 257 kts | 102° |
| 2026-05-03 22:31 | 26.11678 | -80.79653 | 7080 ft | 255 kts | 102° |
| 2026-05-03 22:31 | 26.11355 | -80.77732 | 6886 ft | 254 kts | 102° |
| 2026-05-03 22:31 | 26.11027 | -80.75798 | 6779 ft | 254 kts | 102° |
| 2026-05-03 22:31 | 26.10704 | -80.73875 | 6647 ft | 253 kts | 102° |
| 2026-05-03 22:32 | 26.10381 | -80.71951 | 6517 ft | 252 kts | 102° |
| 2026-05-03 22:32 | 26.10059 | -80.70038 | 6381 ft | 252 kts | 102° |
| 2026-05-03 22:32 | 26.09735 | -80.68124 | 6242 ft | 251 kts | 102° |
| 2026-05-03 22:32 | 26.09413 | -80.66218 | 6113 ft | 250 kts | 102° |
| 2026-05-03 22:33 | 26.09096 | -80.64338 | 5981 ft | 250 kts | 101° |
| 2026-05-03 22:33 | 26.08774 | -80.62415 | 5845 ft | 249 kts | 102° |
| 2026-05-03 22:33 | 26.08465 | -80.60581 | 5723 ft | 247 kts | 102° |
| 2026-05-03 22:33 | 26.08165 | -80.58792 | 5588 ft | 228 kts | 102° |
| 2026-05-03 22:34 | 26.07885 | -80.57128 | 5482 ft | 215 kts | 102° |
| 2026-05-03 22:34 | 26.07609 | -80.55500 | 5366 ft | 214 kts | 102° |
| 2026-05-03 22:34 | 26.07332 | -80.53873 | 5260 ft | 215 kts | 102° |
| 2026-05-03 22:34 | 26.07018 | -80.52252 | 5146 ft | 214 kts | 105° |
| 2026-05-03 22:35 | 26.06798 | -80.50628 | 5035 ft | 213 kts | 95° |
| 2026-05-03 22:35 | 26.06742 | -80.48976 | 4780 ft | 213 kts | 91° |
| 2026-05-03 22:35 | 26.06732 | -80.47340 | 4451 ft | 210 kts | 90° |
| 2026-05-03 22:35 | 26.06727 | -80.45702 | 4146 ft | 211 kts | 91° |
| 2026-05-03 22:36 | 26.06721 | -80.44114 | 4006 ft | 208 kts | 91° |
| 2026-05-03 22:36 | 26.06715 | -80.42494 | 4011 ft | 210 kts | 91° |
| 2026-05-03 22:36 | 26.06709 | -80.40875 | 4016 ft | 209 kts | 91° |
| 2026-05-03 22:36 | 26.06703 | -80.39256 | 3942 ft | 210 kts | 91° |
| 2026-05-03 22:37 | 26.06696 | -80.37637 | 3730 ft | 208 kts | 91° |
| 2026-05-03 22:37 | 26.06689 | -80.36030 | 3481 ft | 208 kts | 91° |
| 2026-05-03 22:37 | 26.06683 | -80.34489 | 3225 ft | 204 kts | 92° |
| 2026-05-03 22:37 | 26.06675 | -80.32902 | 2961 ft | 206 kts | 91° |
| 2026-05-03 22:38 | 26.06668 | -80.31329 | 2700 ft | 202 kts | 92° |
| 2026-05-03 22:38 | 26.06660 | -80.29749 | 2439 ft | 205 kts | 90° |
| 2026-05-03 22:38 | 26.06653 | -80.28206 | 2187 ft | 190 kts | 91° |
| 2026-05-03 22:38 | 26.06647 | -80.26789 | 1948 ft | 183 kts | 91° |
| 2026-05-03 22:39 | 26.06640 | -80.25394 | 1713 ft | 177 kts | 92° |
| 2026-05-03 22:39 | 26.06634 | -80.24081 | 1491 ft | 167 kts | 92° |
| 2026-05-03 22:39 | 26.06627 | -80.22799 | 1277 ft | 163 kts | 93° |
| 2026-05-03 22:39 | 26.06620 | -80.21541 | 1069 ft | 163 kts | 94° |
| 2026-05-03 22:40 | 26.06613 | -80.20287 | 846 ft | 161 kts | 91° |
| 2026-05-03 22:40 | 26.06606 | -80.19062 | 637 ft | 155 kts | 89° |
| 2026-05-03 22:40 | 26.06599 | -80.17874 | 430 ft | 152 kts | 88° |
| 2026-05-03 22:40 | 26.06593 | -80.16717 | 225 ft | 148 kts | 88° |
| 2026-05-03 22:41 | 26.06584 | -80.15570 | 33 ft | 148 kts | 86° |
| 2026-05-03 22:41 | 26.06588 | -80.14572 | 39 ft | 90 kts | 88° |
| 2026-05-03 22:41 | 26.06607 | -80.14261 | 53 ft | 20 kts | 53° |
| 2026-05-03 22:41 | 26.06679 | -80.14289 | 49 ft | 17 kts | 270° |
| 2026-05-03 22:42 | 26.06677 | -80.14423 | 46 ft | 19 kts | 270° |
| 2026-05-03 22:42 | 26.06677 | -80.14587 | 40 ft | 23 kts | 270° |
| 2026-05-03 22:42 | 26.06677 | -80.14748 | 27 ft | 22 kts | 273° |
| 2026-05-03 22:42 | 26.06699 | -80.14898 | 19 ft | 15 kts | 310° |
| 2026-05-03 22:43 | 26.06766 | -80.14893 | 16 ft | 11 kts | 77° |
| 2026-05-03 22:43 | 26.06766 | -80.14799 | 16 ft | 13 kts | 91° |
| 2026-05-03 22:43 | 26.06765 | -80.14692 | 16 ft | 15 kts | 90° |
| 2026-05-03 22:43 | 26.06765 | -80.14571 | 16 ft | 16 kts | 89° |
| 2026-05-03 22:44 | 26.06772 | -80.14463 | 16 ft | 13 kts | 90° |
| 2026-05-03 22:44 | 26.06771 | -80.14357 | 16 ft | 15 kts | 91° |
| 2026-05-03 22:44 | 26.06794 | -80.14258 | 16 ft | 10 kts | 60° |
| 2026-05-03 22:44 | 26.06817 | -80.14180 | 16 ft | 11 kts | 91° |
| 2026-05-03 22:45 | 26.06842 | -80.14096 | 16 ft | 12 kts | 32° |
| 2026-05-03 22:45 | 26.06923 | -80.14082 | 16 ft | 10 kts | 359° |